Time;durP1;ratioP1;P1;durP2;ratioP2;P2;SDS_P1;SDS_P2;PMS_P1;PMS_P2;Temp;Humidity;BMP_temperature;BMP_pressure;BME280_temperature;BME280_humidity;BME280_pressure;Samples;Min_cycle;Max_cycle;Signal;HPM_P1;HPM_P2
2021/12/15 00:01:09;;;;;;;1.38;1.33;;;8.20;99.90;;;;;;5073492;28;20510;-78
2021/12/15 00:03:35;;;;;;;2.60;1.90;;;8.10;99.90;;;;;;5072936;28;20043;-78
2021/12/15 00:06:10;;;;;;;2.08;1.75;;;8.10;99.90;;;;;;5081862;28;20031;-79
2021/12/15 00:08:35;;;;;;;1.67;1.58;;;8.10;99.90;;;;;;5073426;28;20369;-78
2021/12/15 00:11:01;;;;;;;2.00;1.80;;;8.00;99.90;;;;;;5073167;28;20031;-78
2021/12/15 00:13:26;;;;;;;1.90;1.80;;;8.00;99.90;;;;;;5072845;28;20380;-78
2021/12/15 00:15:52;;;;;;;1.75;1.65;;;8.00;99.90;;;;;;5073224;28;20024;-78
2021/12/15 00:18:18;;;;;;;1.85;1.75;;;8.00;99.90;;;;;;5073366;28;20086;-78
2021/12/15 00:20:45;;;;;;;2.30;2.03;;;8.00;99.90;;;;;;5071770;28;20036;-78
2021/12/15 00:23:11;;;;;;;3.35;1.95;;;8.00;99.90;;;;;;5073026;28;20055;-78
2021/12/15 00:25:42;;;;;;;2.30;1.70;;;8.10;99.90;;;;;;5072624;28;20377;-78
2021/12/15 00:28:08;;;;;;;2.75;2.00;;;8.10;99.90;;;;;;5073197;28;20025;-78
2021/12/15 00:30:34;;;;;;;4.85;1.88;;;8.10;99.90;;;;;;5071657;28;20047;-79
2021/12/15 00:33:00;;;;;;;3.20;1.80;;;8.10;99.90;;;;;;5072721;28;20028;-78
2021/12/15 00:35:25;;;;;;;2.80;2.05;;;8.10;99.90;;;;;;5072943;28;20353;-78
2021/12/15 00:37:52;;;;;;;2.05;1.92;;;8.10;99.90;;;;;;5073114;28;20040;-78
2021/12/15 00:40:19;;;;;;;1.73;1.63;;;8.10;99.90;;;;;;5072886;28;20110;-78
2021/12/15 00:42:46;;;;;;;2.22;2.03;;;8.00;99.90;;;;;;5072659;28;20471;-78
2021/12/15 00:45:12;;;;;;;2.15;1.98;;;8.10;99.90;;;;;;5072288;28;20107;-78
2021/12/15 00:47:37;;;;;;;2.00;1.80;;;8.00;99.90;;;;;;5072758;28;20077;-78
2021/12/15 00:50:08;;;;;;;2.53;1.88;;;8.10;99.90;;;;;;5072926;28;20095;-78
2021/12/15 00:52:36;;;;;;;3.72;1.77;;;8.10;99.90;;;;;;5072519;28;20523;-78
2021/12/15 00:55:06;;;;;;;3.05;1.95;;;8.10;99.90;;;;;;5072583;28;20036;-78
2021/12/15 00:57:32;;;;;;;2.67;1.65;;;8.10;99.90;;;;;;5071069;28;20044;-78
2021/12/15 00:59:58;;;;;;;2.22;1.90;;;8.20;99.90;;;;;;5072195;28;20086;-78
2021/12/15 01:02:24;;;;;;;2.35;2.15;;;8.20;99.90;;;;;;5072103;28;20038;-78
2021/12/15 01:04:50;;;;;;;2.70;2.17;;;8.20;99.90;;;;;;5071422;28;20488;-78
2021/12/15 01:07:16;;;;;;;2.45;1.90;;;8.20;99.90;;;;;;5072470;28;20132;-78
2021/12/15 01:09:50;;;;;;;2.92;1.90;;;8.30;99.90;;;;;;5072312;28;20446;-78
2021/12/15 01:20:54;;;;;;;1.75;1.65;;;8.40;99.90;;;;;;5072432;28;20031;-78
2021/12/15 01:23:25;;;;;;;1.77;1.67;;;8.40;99.90;;;;;;5072123;28;20090;-78
2021/12/15 01:25:58;;;;;;;2.40;2.20;;;8.40;99.90;;;;;;5056712;28;20113;-78
2021/12/15 01:28:24;;;;;;;3.05;1.98;;;8.40;99.90;;;;;;5071856;28;20025;-78
2021/12/15 01:30:51;;;;;;;1.80;1.70;;;8.40;99.90;;;;;;5072144;28;20032;-78
2021/12/15 01:33:19;;;;;;;2.60;2.28;;;8.40;99.90;;;;;;5072021;28;20039;-78
2021/12/15 01:35:48;;;;;;;3.28;1.98;;;8.30;99.90;;;;;;5072270;28;20036;-78
2021/12/15 01:38:16;;;;;;;2.13;1.92;;;8.30;99.90;;;;;;5072239;28;20021;-78
2021/12/15 01:40:44;;;;;;;2.00;1.90;;;8.30;99.90;;;;;;5072124;28;20495;-78
2021/12/15 01:43:48;;;;;;;2.70;2.15;;;8.30;99.90;;;;;;5074440;28;20136;-78
2021/12/15 01:49:05;;;;;;;3.63;2.75;;;8.20;99.90;;;;;;5076366;28;20179;-78
2021/12/15 01:51:30;;;;;;;3.00;2.80;;;8.30;99.90;;;;;;5075906;28;20016;-78
2021/12/15 01:53:57;;;;;;;2.70;2.47;;;8.30;99.90;;;;;;5074327;28;20029;-78
2021/12/15 01:56:23;;;;;;;2.90;2.45;;;8.30;99.90;;;;;;5075851;28;20020;-78
2021/12/15 01:58:49;;;;;;;6.85;2.92;;;8.30;99.90;;;;;;5075505;28;20387;-78
2021/12/15 02:01:14;;;;;;;3.20;2.75;;;8.30;99.90;;;;;;5076015;28;20020;-78
2021/12/15 02:03:40;;;;;;;3.33;2.92;;;8.30;99.90;;;;;;5074311;28;20035;-79
2021/12/15 02:06:08;;;;;;;4.53;3.38;;;8.20;99.90;;;;;;5075267;28;20017;-78
2021/12/15 02:08:35;;;;;;;2.90;2.63;;;8.20;99.90;;;;;;5075570;28;20020;-78
2021/12/15 02:11:00;;;;;;;2.80;2.60;;;8.20;99.90;;;;;;5075601;28;20086;-79
2021/12/15 02:13:27;;;;;;;4.00;3.65;;;8.30;99.90;;;;;;5075269;28;20029;-78
2021/12/15 02:15:55;;;;;;;3.90;3.33;;;8.30;99.90;;;;;;5080902;28;20028;-79
2021/12/15 02:18:26;;;;;;;3.58;3.28;;;8.30;99.90;;;;;;5077224;28;20055;-78
2021/12/15 02:20:57;;;;;;;3.72;3.15;;;8.30;99.90;;;;;;5075584;28;20028;-78
2021/12/15 02:23:32;;;;;;;4.70;3.53;;;8.30;99.90;;;;;;5073523;28;20032;-78
2021/12/15 02:26:00;;;;;;;6.53;3.63;;;8.30;99.90;;;;;;5075453;28;20027;-79
2021/12/15 02:28:27;;;;;;;5.80;3.50;;;8.30;99.90;;;;;;5074992;28;20024;-78
2021/12/15 02:31:06;;;;;;;4.93;3.35;;;8.20;99.90;;;;;;5075114;28;20032;-79
2021/12/15 02:33:54;;;;;;;3.40;3.10;;;8.20;99.90;;;;;;5058138;28;20032;-78
2021/12/15 02:39:07;;;;;;;3.53;3.17;;;8.30;99.90;;;;;;5074377;28;20435;-78
2021/12/15 02:41:34;;;;;;;3.78;3.13;;;8.30;99.90;;;;;;5075015;28;20055;-79
2021/12/15 02:44:04;;;;;;;3.40;2.90;;;8.30;99.90;;;;;;5074556;28;20042;-78
2021/12/15 02:46:32;;;;;;;2.70;2.50;;;8.20;99.90;;;;;;5074180;28;20027;-78
2021/12/15 02:48:58;;;;;;;2.90;2.53;;;8.30;99.90;;;;;;5074645;28;20059;-79
2021/12/15 02:51:25;;;;;;;2.50;2.30;;;8.30;99.90;;;;;;5075027;28;20028;-78
2021/12/15 02:53:51;;;;;;;2.58;2.13;;;8.30;99.90;;;;;;5072392;28;20035;-78
2021/12/15 02:56:18;;;;;;;2.40;2.20;;;8.30;99.90;;;;;;5074603;28;20039;-78
2021/12/15 02:58:52;;;;;;;2.35;2.15;;;8.30;99.90;;;;;;5074281;28;20052;-79
2021/12/15 03:01:30;;;;;;;2.80;2.60;;;8.30;99.90;;;;;;5073509;28;20047;-79
2021/12/15 03:17:31;;;;;;;2.20;2.00;;;8.40;99.90;;;;;;5074361;28;20064;-78
2021/12/15 03:19:57;;;;;;;2.28;2.13;;;8.40;99.90;;;;;;5072752;28;20473;-78
2021/12/15 03:22:23;;;;;;;2.08;1.98;;;8.50;99.90;;;;;;5074468;28;20100;-79
2021/12/15 03:24:48;;;;;;;1.90;1.80;;;8.50;99.90;;;;;;5072906;28;20024;-78
2021/12/15 03:27:19;;;;;;;2.03;1.90;;;8.50;99.90;;;;;;5074316;28;20023;-78
2021/12/15 03:37:54;;;;;;;4.43;2.33;;;8.50;99.90;;;;;;5074156;28;20094;-79
2021/12/15 03:40:27;;;;;;;2.30;2.10;;;8.50;99.90;;;;;;5073815;28;20028;-78
2021/12/15 03:42:59;;;;;;;1.65;1.55;;;8.50;99.90;;;;;;5073291;28;20036;-78
2021/12/15 03:45:32;;;;;;;2.22;1.90;;;8.60;99.90;;;;;;5073640;28;20039;-78
2021/12/15 03:48:01;;;;;;;2.70;2.00;;;8.50;99.90;;;;;;5073491;28;20028;-78
2021/12/15 03:50:28;;;;;;;2.25;2.00;;;8.60;99.90;;;;;;5073723;28;20021;-78
2021/12/15 03:52:54;;;;;;;2.20;2.05;;;8.60;99.90;;;;;;5073506;28;20029;-79
2021/12/15 03:55:27;;;;;;;2.05;1.85;;;8.50;99.90;;;;;;5073317;28;20062;-79
2021/12/15 03:57:54;;;;;;;2.25;2.05;;;8.50;99.90;;;;;;5073131;28;20060;-79
2021/12/15 04:00:21;;;;;;;2.13;2.00;;;8.50;99.90;;;;;;5073099;28;20043;-78
2021/12/15 04:02:51;;;;;;;2.75;2.10;;;8.50;99.90;;;;;;5071991;28;20021;-78
2021/12/15 04:05:19;;;;;;;2.63;2.42;;;8.50;99.90;;;;;;5073052;28;20108;-78
2021/12/15 04:07:47;;;;;;;3.03;2.72;;;8.50;99.90;;;;;;5073336;28;20021;-79
2021/12/15 04:10:17;;;;;;;2.72;2.53;;;8.50;99.90;;;;;;5072803;28;20503;-79
2021/12/15 04:12:43;;;;;;;2.63;2.42;;;8.50;99.90;;;;;;5073110;28;20422;-79
2021/12/15 04:15:30;;;;;;;3.05;2.20;;;8.50;99.90;;;;;;5072751;28;20081;-78
2021/12/15 04:18:01;;;;;;;2.97;2.67;;;8.40;99.90;;;;;;5067812;28;20090;-78
2021/12/15 04:20:32;;;;;;;2.10;1.95;;;8.40;99.90;;;;;;5072770;28;20029;-79
2021/12/15 04:22:59;;;;;;;1.92;1.77;;;8.50;99.90;;;;;;5072857;28;20068;-79
2021/12/15 04:25:29;;;;;;;2.17;2.00;;;8.50;99.90;;;;;;5075055;28;20484;-79
2021/12/15 04:28:01;;;;;;;2.10;1.90;;;8.50;99.90;;;;;;5092187;28;20016;-78
2021/12/15 04:30:27;;;;;;;1.70;1.60;;;8.60;99.90;;;;;;5072804;28;20384;-78
2021/12/15 04:32:54;;;;;;;1.70;1.60;;;8.60;99.90;;;;;;5081463;28;20024;-78
2021/12/15 04:35:20;;;;;;;2.35;1.90;;;8.60;99.90;;;;;;5092189;28;20035;-78
2021/12/15 04:37:47;;;;;;;2.08;1.98;;;8.70;99.90;;;;;;5074153;28;20021;-78
2021/12/15 04:40:21;;;;;;;2.28;2.08;;;8.60;99.90;;;;;;5071664;28;20115;-78
2021/12/15 04:42:47;;;;;;;2.00;1.90;;;8.60;99.90;;;;;;5052010;28;20025;-78
2021/12/15 04:45:19;;;;;;;2.00;1.90;;;8.50;99.90;;;;;;5053392;28;20484;-78
2021/12/15 04:47:46;;;;;;;2.08;1.98;;;8.50;99.90;;;;;;5072985;28;20070;-78
2021/12/15 04:50:12;;;;;;;2.30;2.10;;;8.50;99.90;;;;;;5072670;28;20043;-78
2021/12/15 04:52:38;;;;;;;2.08;1.90;;;8.40;99.90;;;;;;5072023;28;20046;-78
2021/12/15 04:55:06;;;;;;;2.28;2.08;;;8.40;99.90;;;;;;5073102;28;20095;-78
2021/12/15 04:57:32;;;;;;;2.42;1.90;;;8.40;99.90;;;;;;5076835;28;20071;-78
2021/12/15 04:59:58;;;;;;;1.40;1.30;;;8.50;99.90;;;;;;5072806;28;20024;-78
2021/12/15 05:02:24;;;;;;;1.88;1.77;;;8.50;99.90;;;;;;5072098;28;20033;-78
2021/12/15 05:04:51;;;;;;;1.92;1.83;;;8.60;99.90;;;;;;5072618;28;20388;-78
2021/12/15 05:07:19;;;;;;;1.85;1.48;;;8.60;99.90;;;;;;5072606;28;20024;-78
2021/12/15 05:09:49;;;;;;;1.85;1.70;;;8.60;99.90;;;;;;5072760;28;20460;-78
2021/12/15 05:12:16;;;;;;;1.98;1.70;;;8.60;99.90;;;;;;5072498;28;20020;-78
2021/12/15 05:14:41;;;;;;;1.90;1.75;;;8.60;99.90;;;;;;5072218;28;20016;-78
2021/12/15 05:17:08;;;;;;;1.77;1.67;;;8.60;99.90;;;;;;5071995;28;20384;-78
2021/12/15 05:19:34;;;;;;;1.75;1.65;;;8.60;99.90;;;;;;5072727;28;20025;-78
2021/12/15 05:22:00;;;;;;;1.30;1.20;;;8.60;99.90;;;;;;5072361;28;20036;-78
2021/12/15 05:27:05;;;;;;;1.88;1.60;;;8.50;99.90;;;;;;5072551;28;20155;-78
2021/12/15 05:29:31;;;;;;;4.07;1.50;;;8.50;99.90;;;;;;5071878;28;20384;-78
2021/12/15 05:31:57;;;;;;;1.50;1.40;;;8.50;99.90;;;;;;5071051;28;20024;-78
2021/12/15 05:34:23;;;;;;;1.88;1.63;;;8.50;99.90;;;;;;5071288;28;20385;-78
2021/12/15 05:36:52;;;;;;;1.85;1.75;;;8.50;99.90;;;;;;5073519;28;20512;-78
2021/12/15 05:39:17;;;;;;;1.83;1.30;;;8.60;99.90;;;;;;5076274;28;20028;-78
2021/12/15 05:41:43;;;;;;;1.50;1.40;;;8.60;99.90;;;;;;5071969;28;20028;-78
2021/12/15 05:44:09;;;;;;;1.58;1.48;;;8.60;99.90;;;;;;5074666;28;20036;-78
2021/12/15 05:46:34;;;;;;;1.48;1.40;;;8.60;99.90;;;;;;5079097;28;20078;-78
2021/12/15 05:49:00;;;;;;;1.67;1.58;;;8.50;99.90;;;;;;5071729;28;20024;-78
2021/12/15 05:51:26;;;;;;;2.70;1.75;;;8.60;99.90;;;;;;5073755;28;20047;-78
2021/12/15 05:53:52;;;;;;;1.42;1.33;;;8.70;99.90;;;;;;5075523;28;20037;-78
2021/12/15 05:56:18;;;;;;;1.88;1.73;;;8.70;99.90;;;;;;5083955;28;20089;-78
2021/12/15 05:58:45;;;;;;;1.58;1.48;;;8.70;99.90;;;;;;5073479;28;20075;-78
2021/12/15 06:01:12;;;;;;;3.45;1.83;;;8.70;99.90;;;;;;5071866;28;20024;-78
2021/12/15 06:03:38;;;;;;;1.30;1.23;;;8.70;99.90;;;;;;5071981;28;20032;-78
2021/12/15 06:06:04;;;;;;;3.20;1.73;;;8.60;99.90;;;;;;5072686;28;20021;-78
2021/12/15 06:08:29;;;;;;;1.70;1.60;;;8.60;99.90;;;;;;5072124;28;20029;-78
2021/12/15 06:10:55;;;;;;;1.60;1.50;;;8.50;99.90;;;;;;5071574;28;20025;-78
2021/12/15 06:13:23;;;;;;;4.03;2.58;;;8.60;99.90;;;;;;5072032;28;20028;-78
2021/12/15 06:15:49;;;;;;;3.42;1.85;;;8.60;99.90;;;;;;5071202;28;20021;-78
2021/12/15 06:18:18;;;;;;;1.83;1.30;;;8.60;99.90;;;;;;5072009;28;20069;-78
2021/12/15 06:20:46;;;;;;;6.72;5.00;;;8.60;99.90;;;;;;5071255;28;20150;-78
2021/12/15 06:23:18;;;;;;;5.40;3.95;;;8.70;99.90;;;;;;5071801;28;20025;-78
2021/12/15 06:25:47;;;;;;;4.30;3.53;;;8.70;99.90;;;;;;5070289;28;20027;-78
2021/12/15 06:28:13;;;;;;;4.22;3.42;;;8.70;99.90;;;;;;5071981;28;20381;-78
2021/12/15 06:30:39;;;;;;;5.95;4.43;;;8.70;99.90;;;;;;5074028;28;20032;-78
2021/12/15 06:33:05;;;;;;;3.17;2.72;;;8.70;99.90;;;;;;5072989;28;20036;-78
2021/12/15 06:35:31;;;;;;;2.47;1.83;;;8.70;99.90;;;;;;5074494;28;20040;-78
2021/12/15 06:37:57;;;;;;;2.75;2.55;;;8.70;99.90;;;;;;5073913;28;20392;-78
2021/12/15 06:40:23;;;;;;;1.80;1.70;;;8.60;99.90;;;;;;5074678;28;20040;-78
2021/12/15 06:42:49;;;;;;;2.10;1.90;;;8.60;99.90;;;;;;5073948;28;20029;-78
2021/12/15 06:45:19;;;;;;;1.60;1.50;;;8.60;99.90;;;;;;5075196;28;20540;-78
2021/12/15 06:58:42;;;;;;;1.98;1.88;;;8.40;99.90;;;;;;5082697;28;20420;-78
2021/12/15 07:01:09;;;;;;;1.15;1.15;;;8.40;99.90;;;;;;5092588;28;20024;-78
2021/12/15 07:03:34;;;;;;;1.40;1.30;;;8.50;99.90;;;;;;5078253;28;20075;-78
2021/12/15 07:06:00;;;;;;;1.50;1.40;;;8.50;99.90;;;;;;5088375;28;20078;-78
2021/12/15 07:08:28;;;;;;;1.67;1.58;;;8.50;99.90;;;;;;5092386;28;20016;-78
2021/12/15 07:10:56;;;;;;;1.50;1.40;;;8.50;99.90;;;;;;5092288;28;20050;-78
2021/12/15 07:13:25;;;;;;;1.63;1.05;;;8.60;99.90;;;;;;5086077;28;20043;-78
2021/12/15 07:15:59;;;;;;;4.53;1.10;;;8.50;99.90;;;;;;5088426;28;20017;-78
2021/12/15 07:18:36;;;;;;;1.17;1.08;;;8.50;99.90;;;;;;5085751;28;20016;-78
2021/12/15 07:21:07;;;;;;;1.20;1.10;;;8.60;99.90;;;;;;5068328;28;20040;-78
2021/12/15 07:23:34;;;;;;;1.20;1.15;;;8.50;99.90;;;;;;5081870;28;20031;-78
2021/12/15 07:26:00;;;;;;;1.30;1.27;;;8.60;99.90;;;;;;5059116;28;20090;-78
2021/12/15 07:28:25;;;;;;;1.40;1.30;;;8.60;99.90;;;;;;5053265;28;20358;-79
2021/12/15 07:30:51;;;;;;;4.10;1.40;;;8.60;99.90;;;;;;5054127;28;20104;-79
2021/12/15 07:33:17;;;;;;;1.65;1.55;;;8.60;99.90;;;;;;5069439;28;20430;-80
2021/12/15 07:35:43;;;;;;;1.65;1.55;;;8.60;99.90;;;;;;5054038;28;20370;-79
2021/12/15 07:38:09;;;;;;;1.65;1.55;;;8.70;99.90;;;;;;5054249;28;20025;-79
2021/12/15 07:40:37;;;;;;;4.40;1.95;;;8.60;99.90;;;;;;5053784;28;20032;-79
2021/12/15 07:43:08;;;;;;;1.75;1.65;;;8.70;99.90;;;;;;5053403;28;20381;-79
2021/12/15 07:45:39;;;;;;;1.65;1.55;;;8.70;99.90;;;;;;5054081;28;20013;-80
2021/12/15 07:48:09;;;;;;;1.50;1.40;;;8.70;99.90;;;;;;5086099;28;20049;-77
2021/12/15 07:50:36;;;;;;;1.60;1.50;;;8.70;99.90;;;;;;5053977;28;20043;-79
2021/12/15 07:53:04;;;;;;;1.90;1.70;;;8.70;99.90;;;;;;5069133;28;20094;-79
2021/12/15 07:55:30;;;;;;;2.20;1.77;;;8.70;99.90;;;;;;5053946;28;20028;-79
2021/12/15 07:57:55;;;;;;;1.52;1.42;;;8.70;99.90;;;;;;5053330;28;20048;-79
2021/12/15 08:00:23;;;;;;;1.70;1.60;;;8.70;99.90;;;;;;5053600;28;20033;-79
2021/12/15 08:02:50;;;;;;;6.35;2.10;;;8.70;99.90;;;;;;5053541;28;20021;-80
2021/12/15 08:05:16;;;;;;;1.92;1.83;;;8.70;99.90;;;;;;5053621;28;20029;-80
2021/12/15 08:07:42;;;;;;;17.13;3.13;;;8.70;99.90;;;;;;5053544;28;20075;-77
2021/12/15 08:10:10;;;;;;;2.33;1.83;;;8.60;99.90;;;;;;5053477;28;20064;-79
2021/12/15 08:12:37;;;;;;;1.60;1.50;;;8.70;99.90;;;;;;5052017;28;20032;-79
2021/12/15 08:15:06;;;;;;;1.80;1.70;;;8.70;99.90;;;;;;5053397;28;20025;-79
2021/12/15 08:17:32;;;;;;;3.00;2.00;;;8.70;99.90;;;;;;5053474;28;20514;-80
2021/12/15 08:19:57;;;;;;;1.70;1.60;;;8.70;99.90;;;;;;5053404;28;20100;-79
2021/12/15 08:22:23;;;;;;;1.58;1.48;;;8.70;99.90;;;;;;5053088;28;20477;-79
2021/12/15 08:24:49;;;;;;;1.70;1.60;;;8.70;99.90;;;;;;5053251;28;20032;-80
2021/12/15 08:27:14;;;;;;;1.15;1.10;;;8.70;99.90;;;;;;5052920;28;20021;-79
2021/12/15 08:29:40;;;;;;;1.48;1.38;;;8.70;99.90;;;;;;5053032;28;20013;-77
2021/12/15 08:32:06;;;;;;;1.70;1.52;;;8.70;99.90;;;;;;5053109;28;20013;-77
2021/12/15 08:34:32;;;;;;;1.42;1.33;;;8.70;99.90;;;;;;5085335;28;20021;-80
2021/12/15 08:36:58;;;;;;;1.50;1.40;;;8.60;99.90;;;;;;5068447;28;20380;-79
2021/12/15 08:39:23;;;;;;;1.98;1.70;;;8.70;99.90;;;;;;5052999;28;20398;-80
2021/12/15 08:41:49;;;;;;;2.05;1.85;;;8.60;99.90;;;;;;5071429;28;20111;-80
2021/12/15 08:44:15;;;;;;;2.45;2.00;;;8.60;99.90;;;;;;5074132;28;20032;-81
2021/12/15 08:46:44;;;;;;;2.38;2.10;;;8.60;99.90;;;;;;5071678;28;20452;-78
2021/12/15 08:49:16;;;;;;;1.70;1.60;;;8.60;99.90;;;;;;5076039;28;20403;-80
2021/12/15 08:51:41;;;;;;;2.53;2.33;;;8.60;99.90;;;;;;5071152;28;20035;-78
2021/12/15 08:54:10;;;;;;;2.88;2.53;;;8.60;99.90;;;;;;5072690;28;20028;-81
2021/12/15 08:56:45;;;;;;;2.60;2.40;;;8.60;99.90;;;;;;5072470;28;20065;-79
2021/12/15 08:59:11;;;;;;;2.90;2.65;;;8.70;99.90;;;;;;5072313;28;20033;-79
2021/12/15 09:01:41;;;;;;;4.72;2.88;;;8.60;99.90;;;;;;5072789;28;20506;-79
2021/12/15 09:04:07;;;;;;;3.13;2.47;;;8.60;99.90;;;;;;5072621;28;20454;-79
2021/12/15 09:06:40;;;;;;;3.35;2.83;;;8.70;99.90;;;;;;5072662;28;20055;-79
2021/12/15 09:09:08;;;;;;;4.43;3.15;;;8.70;99.90;;;;;;5072772;28;20024;-79
2021/12/15 09:11:34;;;;;;;4.18;3.30;;;8.70;99.90;;;;;;5072601;28;20107;-78
2021/12/15 09:14:01;;;;;;;4.70;3.60;;;8.70;99.90;;;;;;5070989;28;20031;-78
2021/12/15 09:16:30;;;;;;;4.07;3.25;;;8.80;99.90;;;;;;5072294;28;20111;-79
2021/12/15 09:18:58;;;;;;;4.45;3.22;;;8.80;99.90;;;;;;5073556;28;20465;-79
2021/12/15 09:21:25;;;;;;;4.10;3.70;;;8.80;99.90;;;;;;5080427;28;20396;-78
2021/12/15 09:23:52;;;;;;;5.78;3.00;;;8.80;99.90;;;;;;5073127;28;20062;-79
2021/12/15 09:26:17;;;;;;;4.05;3.15;;;8.80;99.90;;;;;;5072383;28;20533;-78
2021/12/15 09:28:43;;;;;;;3.80;3.28;;;8.80;99.90;;;;;;5071995;28;20150;-78
2021/12/15 09:31:10;;;;;;;4.95;2.95;;;8.80;99.90;;;;;;5072682;28;20346;-79
2021/12/15 09:33:38;;;;;;;4.40;3.45;;;8.80;99.90;;;;;;5072301;28;20396;-79
2021/12/15 09:36:04;;;;;;;3.00;2.80;;;8.90;99.90;;;;;;5072253;28;20028;-79
2021/12/15 09:38:30;;;;;;;2.97;2.33;;;8.90;99.90;;;;;;5072263;28;20029;-79
2021/12/15 09:41:00;;;;;;;3.40;3.10;;;8.90;99.90;;;;;;5072340;28;20083;-78
2021/12/15 09:43:28;;;;;;;4.80;3.38;;;8.90;99.90;;;;;;5072045;28;20020;-79
2021/12/15 09:46:08;;;;;;;3.40;3.03;;;8.90;99.90;;;;;;5072275;28;20020;-78
2021/12/15 10:05:15;;;;;;;3.08;2.78;;;9.00;99.90;;;;;;5095450;28;20032;-79
2021/12/15 10:18:44;;;;;;;3.45;3.15;;;9.20;99.90;;;;;;5087294;28;20039;-78
2021/12/15 10:21:26;;;;;;;5.28;3.33;;;9.20;99.90;;;;;;5095741;28;20048;-79
2021/12/15 10:23:55;;;;;;;3.50;3.00;;;9.20;99.90;;;;;;5055336;28;20083;-79
2021/12/15 10:26:21;;;;;;;4.15;3.17;;;9.30;99.90;;;;;;5088080;28;20376;-78
2021/12/15 10:28:52;;;;;;;3.88;3.05;;;9.30;99.90;;;;;;5090110;28;20028;-78
2021/12/15 10:31:20;;;;;;;4.70;3.70;;;9.30;99.90;;;;;;5095408;28;20095;-79
2021/12/15 10:34:09;;;;;;;2.95;2.60;;;9.30;99.90;;;;;;5087977;28;20452;-79
2021/12/15 10:36:35;;;;;;;4.40;3.33;;;9.40;99.90;;;;;;5085484;28;20078;-78
2021/12/15 10:39:06;;;;;;;4.63;3.63;;;9.40;99.90;;;;;;5092983;28;20032;-78
2021/12/15 10:41:37;;;;;;;3.75;2.88;;;9.50;99.90;;;;;;5077689;28;20020;-78
2021/12/15 10:44:14;;;;;;;2.90;2.70;;;9.60;99.90;;;;;;5077153;28;20024;-79
2021/12/15 10:46:52;;;;;;;8.50;3.70;;;9.70;99.90;;;;;;5073764;28;20028;-79
2021/12/15 10:49:27;;;;;;;4.47;3.00;;;9.70;99.90;;;;;;5075284;28;20032;-78
2021/12/15 10:51:55;;;;;;;8.63;3.47;;;9.70;99.90;;;;;;5075002;28;20048;-78
2021/12/15 10:54:24;;;;;;;4.05;3.65;;;9.80;99.90;;;;;;5075091;28;20029;-78
2021/12/15 10:57:03;;;;;;;5.65;4.82;;;9.80;99.90;;;;;;5067904;28;20483;-79
2021/12/15 10:59:33;;;;;;;6.03;4.15;;;9.80;99.90;;;;;;5079273;28;20024;-78
2021/12/15 11:02:17;;;;;;;8.30;4.95;;;9.70;99.90;;;;;;5074769;28;20225;-78
2021/12/15 11:04:53;;;;;;;3.75;3.42;;;9.70;99.90;;;;;;5074761;28;20028;-78
2021/12/15 11:07:31;;;;;;;4.35;3.65;;;9.70;99.90;;;;;;5074235;28;20155;-78
2021/12/15 11:10:10;;;;;;;8.73;3.50;;;9.70;99.90;;;;;;5067780;28;20090;-78
2021/12/15 11:12:41;;;;;;;6.97;3.58;;;9.60;99.90;;;;;;5076151;28;20024;-78
2021/12/15 11:15:09;;;;;;;6.35;3.42;;;9.70;99.90;;;;;;5082510;28;20028;-78
2021/12/15 11:17:51;;;;;;;4.18;3.55;;;9.60;99.90;;;;;;5069273;28;20020;-78
2021/12/15 11:20:28;;;;;;;5.68;3.97;;;9.70;99.90;;;;;;5074165;28;20392;-78
2021/12/15 11:23:09;;;;;;;3.45;3.15;;;9.60;99.90;;;;;;5072511;28;20024;-78
2021/12/15 11:26:08;;;;;;;3.78;3.10;;;9.70;99.90;;;;;;5073838;28;20326;-78
2021/12/15 11:29:01;;;;;;;3.40;3.10;;;9.80;99.90;;;;;;5039086;28;20024;-78
2021/12/15 11:31:31;;;;;;;4.35;3.45;;;9.80;99.90;;;;;;5077607;28;20090;-78
2021/12/15 11:34:05;;;;;;;4.15;3.67;;;9.80;99.90;;;;;;5075592;28;20024;-78
2021/12/15 11:36:34;;;;;;;3.55;2.80;;;9.80;99.90;;;;;;5074463;28;20039;-78
2021/12/15 11:39:05;;;;;;;3.00;2.70;;;9.80;99.90;;;;;;5087710;28;20431;-78
2021/12/15 11:41:37;;;;;;;4.05;2.70;;;9.80;99.90;;;;;;5079249;28;20032;-78
2021/12/15 11:44:06;;;;;;;3.13;2.67;;;9.80;99.90;;;;;;5074408;28;20024;-78
2021/12/15 11:46:35;;;;;;;3.85;3.38;;;9.80;99.90;;;;;;5079299;28;20019;-78
2021/12/15 11:49:07;;;;;;;4.97;3.10;;;9.80;99.90;;;;;;5091733;28;20028;-79
2021/12/15 11:51:45;;;;;;;6.18;3.20;;;9.90;99.90;;;;;;5079532;28;20024;-78
2021/12/15 11:54:20;;;;;;;3.65;3.22;;;9.90;99.90;;;;;;5079725;28;20077;-78
2021/12/15 11:56:55;;;;;;;3.55;3.17;;;10.00;99.90;;;;;;5071478;28;20036;-78
2021/12/15 11:59:30;;;;;;;2.97;2.67;;;9.90;99.90;;;;;;5083029;28;20136;-78
2021/12/15 12:02:20;;;;;;;3.28;2.97;;;10.00;99.90;;;;;;5069797;28;20035;-78
2021/12/15 12:05:07;;;;;;;2.95;2.72;;;10.00;99.90;;;;;;5073363;28;20040;-78
2021/12/15 12:07:46;;;;;;;9.02;3.50;;;10.10;99.90;;;;;;5071276;28;20036;-78
2021/12/15 12:10:42;;;;;;;4.38;3.70;;;10.00;99.90;;;;;;5071108;28;20028;-78
2021/12/15 12:13:14;;;;;;;3.75;3.35;;;10.10;99.90;;;;;;5068551;28;20112;-78
2021/12/15 12:15:47;;;;;;;7.28;2.83;;;10.10;99.90;;;;;;5071209;28;20036;-78
2021/12/15 12:18:19;;;;;;;3.03;2.72;;;10.10;99.90;;;;;;5073206;28;20031;-78
2021/12/15 12:20:49;;;;;;;3.78;3.15;;;10.10;99.90;;;;;;5073057;28;20052;-78
2021/12/15 12:23:18;;;;;;;3.97;3.58;;;10.00;99.90;;;;;;5072981;28;20103;-78
2021/12/15 12:25:47;;;;;;;3.03;2.47;;;9.90;99.90;;;;;;5072098;28;20361;-78
2021/12/15 12:28:19;;;;;;;3.22;2.92;;;9.90;99.90;;;;;;5072548;28;20407;-78
2021/12/15 12:30:53;;;;;;;2.85;2.45;;;9.90;99.90;;;;;;5075396;28;20032;-78
2021/12/15 12:33:22;;;;;;;3.30;2.67;;;9.90;99.90;;;;;;5093225;28;20028;-79
2021/12/15 12:36:25;;;;;;;3.65;2.92;;;9.90;99.90;;;;;;5086179;28;20052;-78
2021/12/15 12:38:55;;;;;;;3.20;2.70;;;9.90;99.90;;;;;;5066365;28;20032;-78
2021/12/15 12:41:24;;;;;;;3.58;2.70;;;9.90;99.90;;;;;;5072167;28;21731;-78
2021/12/15 12:43:57;;;;;;;3.25;2.67;;;9.90;99.90;;;;;;5074544;28;20055;-78
2021/12/15 13:00:22;;;;;;;4.60;3.22;;;9.80;99.90;;;;;;5072892;28;20039;-78
2021/12/15 13:02:51;;;;;;;3.63;3.10;;;9.80;99.90;;;;;;5065258;28;20032;-78
2021/12/15 13:05:34;;;;;;;3.40;2.80;;;9.80;99.90;;;;;;5072872;28;20020;-78
2021/12/15 13:08:29;;;;;;;3.08;2.78;;;9.70;99.90;;;;;;5072746;28;20025;-78
2021/12/15 13:11:17;;;;;;;2.90;2.60;;;9.70;99.90;;;;;;5045564;28;20036;-78
2021/12/15 13:14:04;;;;;;;3.10;2.55;;;9.70;99.90;;;;;;5103689;28;20044;-78
2021/12/15 13:16:54;;;;;;;2.58;2.38;;;9.70;99.90;;;;;;5062132;28;20039;-78
2021/12/15 13:19:25;;;;;;;3.65;2.70;;;9.70;99.90;;;;;;5073522;28;20086;-78
2021/12/15 13:30:47;;;;;;;2.75;1.92;;;9.70;99.90;;;;;;5070342;28;20074;-79
2021/12/15 13:33:36;;;;;;;2.63;2.42;;;9.70;99.90;;;;;;5072313;28;20530;-78
2021/12/15 13:36:13;;;;;;;3.15;2.15;;;9.70;99.90;;;;;;5078412;28;20162;-79
2021/12/15 13:39:15;;;;;;;1.80;1.70;;;9.70;99.90;;;;;;5074037;28;20044;-79
2021/12/15 13:44:48;;;;;;;3.03;2.10;;;9.60;99.90;;;;;;5093402;28;20020;-78
2021/12/15 13:47:24;;;;;;;3.05;2.75;;;9.60;99.90;;;;;;5089212;28;20107;-78
2021/12/15 13:49:58;;;;;;;2.50;2.30;;;9.60;99.90;;;;;;5064422;28;20020;-79
2021/12/15 13:52:30;;;;;;;1.90;1.75;;;9.60;99.90;;;;;;5078096;28;20376;-78
2021/12/15 13:55:00;;;;;;;2.08;1.63;;;9.60;99.90;;;;;;5074894;28;20410;-79
2021/12/15 13:58:07;;;;;;;2.25;1.83;;;9.60;99.90;;;;;;5074962;28;20041;-78
2021/12/15 14:00:46;;;;;;;1.77;1.52;;;9.60;99.90;;;;;;5066606;28;20032;-78
2021/12/15 14:03:22;;;;;;;1.70;1.60;;;9.60;99.90;;;;;;5074174;28;20024;-78
2021/12/15 14:06:19;;;;;;;2.00;1.80;;;9.60;99.90;;;;;;5074778;28;20024;-78
2021/12/15 14:08:49;;;;;;;2.75;2.03;;;9.60;99.90;;;;;;5050183;28;20025;-78
2021/12/15 14:11:32;;;;;;;3.00;1.52;;;9.60;99.90;;;;;;5069356;28;20409;-78
2021/12/15 14:14:01;;;;;;;2.13;1.92;;;9.60;99.90;;;;;;5075311;28;20024;-78
2021/12/15 14:16:32;;;;;;;2.13;1.92;;;9.50;99.90;;;;;;5073965;28;20031;-78
2021/12/15 14:19:00;;;;;;;2.35;2.15;;;9.50;99.90;;;;;;5075912;28;20025;-79
2021/12/15 14:21:27;;;;;;;3.08;2.55;;;9.50;99.90;;;;;;5075517;28;20399;-78
2021/12/15 14:23:53;;;;;;;2.75;2.20;;;9.40;99.90;;;;;;5075370;28;20023;-78
2021/12/15 14:26:27;;;;;;;2.50;2.20;;;9.40;99.90;;;;;;5074929;28;20492;-78
2021/12/15 14:28:56;;;;;;;3.15;2.40;;;9.40;99.90;;;;;;5075469;28;20009;-79
2021/12/15 14:31:33;;;;;;;4.53;3.03;;;9.40;99.90;;;;;;5084113;28;20066;-79
2021/12/15 14:34:21;;;;;;;5.68;3.42;;;9.40;99.90;;;;;;5093850;28;20012;-79
2021/12/15 14:36:52;;;;;;;9.10;3.58;;;9.40;99.90;;;;;;5082120;28;20032;-79
2021/12/15 14:39:27;;;;;;;6.55;4.13;;;9.50;99.90;;;;;;5075425;28;20131;-78
2021/12/15 14:41:56;;;;;;;4.13;2.40;;;9.50;99.90;;;;;;5074631;28;20472;-79
2021/12/15 14:44:29;;;;;;;3.15;2.45;;;9.50;99.90;;;;;;5079693;28;20554;-78
2021/12/15 14:47:03;;;;;;;2.88;2.15;;;9.50;99.90;;;;;;5074963;28;20035;-79
2021/12/15 14:49:32;;;;;;;4.28;2.78;;;9.50;99.90;;;;;;5083097;28;20111;-78
2021/12/15 14:52:03;;;;;;;5.13;3.05;;;9.60;99.90;;;;;;5074721;28;20021;-79
2021/12/15 14:54:31;;;;;;;3.75;2.78;;;9.60;99.90;;;;;;5074910;28;20250;-79
2021/12/15 14:57:01;;;;;;;5.85;2.83;;;9.60;99.90;;;;;;5074208;28;20048;-79